sensor_id;sensor_type;location;lat;lon;timestamp;temperature;humidity
12602;DHT22;30282;16.436;99.370;2023-02-01T00:01:40;17.20;99.90
12602;DHT22;30282;16.436;99.370;2023-02-01T00:04:09;17.10;99.90
12602;DHT22;30282;16.436;99.370;2023-02-01T00:06:38;17.00;99.90
12602;DHT22;30282;16.436;99.370;2023-02-01T00:09:10;17.00;99.90
12602;DHT22;30282;16.436;99.370;2023-02-01T00:11:41;17.10;99.90
12602;DHT22;30282;16.436;99.370;2023-02-01T00:14:10;17.10;99.90
12602;DHT22;30282;16.436;99.370;2023-02-01T00:16:39;17.10;99.90
12602;DHT22;30282;16.436;99.370;2023-02-01T00:19:11;17.20;99.90
12602;DHT22;30282;16.436;99.370;2023-02-01T00:21:40;17.30;99.90
12602;DHT22;30282;16.436;99.370;2023-02-01T00:24:11;17.30;99.90
12602;DHT22;30282;16.436;99.370;2023-02-01T00:26:43;17.30;99.90
12602;DHT22;30282;16.436;99.370;2023-02-01T00:29:15;17.40;99.90
12602;DHT22;30282;16.436;99.370;2023-02-01T00:31:45;17.40;99.90
12602;DHT22;30282;16.436;99.370;2023-02-01T00:34:15;17.50;99.90
12602;DHT22;30282;16.436;99.370;2023-02-01T00:36:45;17.50;99.90
12602;DHT22;30282;16.436;99.370;2023-02-01T00:39:15;17.50;99.90
12602;DHT22;30282;16.436;99.370;2023-02-01T00:41:46;17.50;99.90
12602;DHT22;30282;16.436;99.370;2023-02-01T00:44:15;17.50;99.90
12602;DHT22;30282;16.436;99.370;2023-02-01T00:46:44;17.50;99.90
12602;DHT22;30282;16.436;99.370;2023-02-01T00:49:13;17.60;99.90
12602;DHT22;30282;16.436;99.370;2023-02-01T00:51:42;17.60;99.90
12602;DHT22;30282;16.436;99.370;2023-02-01T00:54:11;17.60;99.90
12602;DHT22;30282;16.436;99.370;2023-02-01T00:56:39;17.50;99.90
12602;DHT22;30282;16.436;99.370;2023-02-01T00:59:11;17.60;99.90
12602;DHT22;30282;16.436;99.370;2023-02-01T01:01:40;17.50;99.90
12602;DHT22;30282;16.436;99.370;2023-02-01T01:04:09;17.60;99.90
12602;DHT22;30282;16.436;99.370;2023-02-01T01:06:38;17.80;99.90
12602;DHT22;30282;16.436;99.370;2023-02-01T01:09:08;18.00;99.90
12602;DHT22;30282;16.436;99.370;2023-02-01T01:11:38;18.10;99.90
12602;DHT22;30282;16.436;99.370;2023-02-01T01:14:09;18.30;99.90
12602;DHT22;30282;16.436;99.370;2023-02-01T01:16:38;18.40;99.90
12602;DHT22;30282;16.436;99.370;2023-02-01T01:19:06;18.50;99.90
12602;DHT22;30282;16.436;99.370;2023-02-01T01:21:35;18.60;99.90
12602;DHT22;30282;16.436;99.370;2023-02-01T01:24:05;18.70;99.90
12602;DHT22;30282;16.436;99.370;2023-02-01T01:26:34;18.70;99.90
12602;DHT22;30282;16.436;99.370;2023-02-01T01:29:03;18.80;99.90
12602;DHT22;30282;16.436;99.370;2023-02-01T01:31:34;18.80;99.90
12602;DHT22;30282;16.436;99.370;2023-02-01T01:34:03;18.90;99.90
12602;DHT22;30282;16.436;99.370;2023-02-01T01:36:32;19.00;99.90
12602;DHT22;30282;16.436;99.370;2023-02-01T01:39:01;19.10;99.90
12602;DHT22;30282;16.436;99.370;2023-02-01T01:41:31;19.20;99.90
12602;DHT22;30282;16.436;99.370;2023-02-01T01:44:02;19.30;99.90
12602;DHT22;30282;16.436;99.370;2023-02-01T01:46:35;19.40;99.90
12602;DHT22;30282;16.436;99.370;2023-02-01T01:49:06;19.60;99.90
12602;DHT22;30282;16.436;99.370;2023-02-01T01:51:40;19.70;99.90
12602;DHT22;30282;16.436;99.370;2023-02-01T01:54:13;19.80;99.90
12602;DHT22;30282;16.436;99.370;2023-02-01T01:56:47;19.90;99.90
12602;DHT22;30282;16.436;99.370;2023-02-01T01:59:18;20.00;99.90
12602;DHT22;30282;16.436;99.370;2023-02-01T02:01:50;20.10;99.90
12602;DHT22;30282;16.436;99.370;2023-02-01T02:04:19;20.30;99.90
12602;DHT22;30282;16.436;99.370;2023-02-01T02:06:51;20.40;99.90
12602;DHT22;30282;16.436;99.370;2023-02-01T02:09:22;20.50;99.90
12602;DHT22;30282;16.436;99.370;2023-02-01T02:11:51;20.60;99.90
12602;DHT22;30282;16.436;99.370;2023-02-01T02:14:22;20.70;99.90
12602;DHT22;30282;16.436;99.370;2023-02-01T02:17:18;20.80;99.90
12602;DHT22;30282;16.436;99.370;2023-02-01T02:29:49;21.30;99.90
12602;DHT22;30282;16.436;99.370;2023-02-01T02:32:53;21.30;99.90
12602;DHT22;30282;16.436;99.370;2023-02-01T02:35:32;21.40;99.90
12602;DHT22;30282;16.436;99.370;2023-02-01T02:38:15;21.40;99.90
12602;DHT22;30282;16.436;99.370;2023-02-01T02:40:49;21.60;99.90
12602;DHT22;30282;16.436;99.370;2023-02-01T02:43:23;21.60;99.90
12602;DHT22;30282;16.436;99.370;2023-02-01T02:46:16;21.70;99.90
12602;DHT22;30282;16.436;99.370;2023-02-01T02:49:10;21.80;99.90
12602;DHT22;30282;16.436;99.370;2023-02-01T02:51:45;22.00;99.90
12602;DHT22;30282;16.436;99.370;2023-02-01T02:54:33;22.10;99.90
12602;DHT22;30282;16.436;99.370;2023-02-01T02:57:27;22.30;99.90
12602;DHT22;30282;16.436;99.370;2023-02-01T03:00:15;22.40;99.90
12602;DHT22;30282;16.436;99.370;2023-02-01T03:03:02;22.50;99.90
12602;DHT22;30282;16.436;99.370;2023-02-01T03:05:49;22.60;99.90
12602;DHT22;30282;16.436;99.370;2023-02-01T03:08:22;22.60;99.90
12602;DHT22;30282;16.436;99.370;2023-02-01T03:10:56;22.80;99.90
12602;DHT22;30282;16.436;99.370;2023-02-01T03:13:33;22.90;99.90
12602;DHT22;30282;16.436;99.370;2023-02-01T03:16:06;23.00;99.90
12602;DHT22;30282;16.436;99.370;2023-02-01T03:18:41;23.10;99.90
12602;DHT22;30282;16.436;99.370;2023-02-01T03:21:14;23.20;99.90
12602;DHT22;30282;16.436;99.370;2023-02-01T03:23:48;23.40;99.90
12602;DHT22;30282;16.436;99.370;2023-02-01T03:26:20;23.50;99.90
12602;DHT22;30282;16.436;99.370;2023-02-01T03:29:00;23.60;99.90
12602;DHT22;30282;16.436;99.370;2023-02-01T03:31:31;23.80;99.90
12602;DHT22;30282;16.436;99.370;2023-02-01T03:34:00;23.90;99.90
12602;DHT22;30282;16.436;99.370;2023-02-01T03:36:33;24.00;99.90
12602;DHT22;30282;16.436;99.370;2023-02-01T03:39:09;24.30;99.90
12602;DHT22;30282;16.436;99.370;2023-02-01T03:41:42;24.50;99.90
12602;DHT22;30282;16.436;99.370;2023-02-01T03:44:15;24.70;99.90
12602;DHT22;30282;16.436;99.370;2023-02-01T03:46:49;25.00;99.90
12602;DHT22;30282;16.436;99.370;2023-02-01T03:49:23;25.20;99.90
12602;DHT22;30282;16.436;99.370;2023-02-01T03:51:55;25.30;99.90
12602;DHT22;30282;16.436;99.370;2023-02-01T03:54:29;25.40;99.90
12602;DHT22;30282;16.436;99.370;2023-02-01T03:57:01;25.50;99.90
12602;DHT22;30282;16.436;99.370;2023-02-01T03:59:31;25.60;99.90
12602;DHT22;30282;16.436;99.370;2023-02-01T04:02:00;25.80;99.90
12602;DHT22;30282;16.436;99.370;2023-02-01T04:04:29;26.00;99.90
12602;DHT22;30282;16.436;99.370;2023-02-01T04:06:59;26.20;99.90
12602;DHT22;30282;16.436;99.370;2023-02-01T04:09:30;26.40;99.90
12602;DHT22;30282;16.436;99.370;2023-02-01T04:11:59;26.50;99.90
12602;DHT22;30282;16.436;99.370;2023-02-01T04:14:29;26.60;99.90
12602;DHT22;30282;16.436;99.370;2023-02-01T04:16:58;26.70;99.90
12602;DHT22;30282;16.436;99.370;2023-02-01T04:19:27;26.90;99.90
12602;DHT22;30282;16.436;99.370;2023-02-01T04:21:56;27.10;99.90
12602;DHT22;30282;16.436;99.370;2023-02-01T04:24:25;27.20;99.90
12602;DHT22;30282;16.436;99.370;2023-02-01T04:26:56;27.30;99.90
12602;DHT22;30282;16.436;99.370;2023-02-01T04:29:25;27.50;99.90
12602;DHT22;30282;16.436;99.370;2023-02-01T04:31:54;27.60;99.90
12602;DHT22;30282;16.436;99.370;2023-02-01T04:34:23;27.70;99.90
12602;DHT22;30282;16.436;99.370;2023-02-01T04:36:53;27.80;99.90
12602;DHT22;30282;16.436;99.370;2023-02-01T04:39:22;27.90;99.90
12602;DHT22;30282;16.436;99.370;2023-02-01T04:41:51;28.00;99.90
12602;DHT22;30282;16.436;99.370;2023-02-01T04:44:22;28.10;99.90
12602;DHT22;30282;16.436;99.370;2023-02-01T04:46:51;28.20;99.90
12602;DHT22;30282;16.436;99.370;2023-02-01T04:49:21;28.40;99.90
12602;DHT22;30282;16.436;99.370;2023-02-01T04:51:52;28.50;99.90
12602;DHT22;30282;16.436;99.370;2023-02-01T04:54:21;28.60;99.90
12602;DHT22;30282;16.436;99.370;2023-02-01T04:56:49;28.70;99.90
12602;DHT22;30282;16.436;99.370;2023-02-01T04:59:19;28.80;99.90
12602;DHT22;30282;16.436;99.370;2023-02-01T05:01:49;28.90;99.90
12602;DHT22;30282;16.436;99.370;2023-02-01T05:04:19;29.10;99.90
12602;DHT22;30282;16.436;99.370;2023-02-01T05:06:48;29.20;99.90
12602;DHT22;30282;16.436;99.370;2023-02-01T05:09:17;29.30;99.90
12602;DHT22;30282;16.436;99.370;2023-02-01T05:11:46;29.20;99.90
12602;DHT22;30282;16.436;99.370;2023-02-01T05:14:31;29.30;99.90
12602;DHT22;30282;16.436;99.370;2023-02-01T05:17:02;29.30;99.90
12602;DHT22;30282;16.436;99.370;2023-02-01T05:19:31;29.40;99.90
12602;DHT22;30282;16.436;99.370;2023-02-01T05:22:00;29.40;99.90
12602;DHT22;30282;16.436;99.370;2023-02-01T05:24:29;29.60;99.90
12602;DHT22;30282;16.436;99.370;2023-02-01T05:26:57;29.70;99.90
12602;DHT22;30282;16.436;99.370;2023-02-01T05:29:26;29.90;99.90
12602;DHT22;30282;16.436;99.370;2023-02-01T05:31:55;30.00;99.90
12602;DHT22;30282;16.436;99.370;2023-02-01T05:34:26;30.00;99.90
12602;DHT22;30282;16.436;99.370;2023-02-01T05:36:55;30.00;99.90
12602;DHT22;30282;16.436;99.370;2023-02-01T05:39:24;30.10;99.90
12602;DHT22;30282;16.436;99.370;2023-02-01T05:41:53;30.20;99.90
12602;DHT22;30282;16.436;99.370;2023-02-01T05:44:22;30.20;99.90
12602;DHT22;30282;16.436;99.370;2023-02-01T05:46:51;30.20;99.90
12602;DHT22;30282;16.436;99.370;2023-02-01T05:49:20;30.30;99.90
12602;DHT22;30282;16.436;99.370;2023-02-01T05:51:51;30.30;99.90
12602;DHT22;30282;16.436;99.370;2023-02-01T05:54:21;30.50;99.90
12602;DHT22;30282;16.436;99.370;2023-02-01T05:56:50;30.40;99.90
12602;DHT22;30282;16.436;99.370;2023-02-01T05:59:19;30.50;99.90
12602;DHT22;30282;16.436;99.370;2023-02-01T06:01:48;30.50;99.90
12602;DHT22;30282;16.436;99.370;2023-02-01T06:04:17;30.50;99.90
12602;DHT22;30282;16.436;99.370;2023-02-01T06:06:46;30.60;99.90
12602;DHT22;30282;16.436;99.370;2023-02-01T06:09:19;30.60;99.90
12602;DHT22;30282;16.436;99.370;2023-02-01T06:11:48;30.50;99.90
12602;DHT22;30282;16.436;99.370;2023-02-01T06:14:17;30.50;99.90
12602;DHT22;30282;16.436;99.370;2023-02-01T06:16:46;30.50;99.90
12602;DHT22;30282;16.436;99.370;2023-02-01T06:19:16;30.50;99.90
12602;DHT22;30282;16.436;99.370;2023-02-01T06:21:45;30.40;99.90
12602;DHT22;30282;16.436;99.370;2023-02-01T06:24:15;30.40;99.90
12602;DHT22;30282;16.436;99.370;2023-02-01T06:26:46;30.30;99.90
12602;DHT22;30282;16.436;99.370;2023-02-01T06:29:15;30.20;99.90
12602;DHT22;30282;16.436;99.370;2023-02-01T06:31:44;30.20;99.90
12602;DHT22;30282;16.436;99.370;2023-02-01T06:34:13;30.10;99.90
12602;DHT22;30282;16.436;99.370;2023-02-01T06:36:42;30.10;99.90
12602;DHT22;30282;16.436;99.370;2023-02-01T06:39:11;30.10;99.90
12602;DHT22;30282;16.436;99.370;2023-02-01T06:41:45;30.10;99.90
12602;DHT22;30282;16.436;99.370;2023-02-01T06:44:15;30.10;99.90
12602;DHT22;30282;16.436;99.370;2023-02-01T06:46:44;30.10;99.90
12602;DHT22;30282;16.436;99.370;2023-02-01T06:49:13;30.10;99.90
12602;DHT22;30282;16.436;99.370;2023-02-01T06:51:42;30.20;99.90
12602;DHT22;30282;16.436;99.370;2023-02-01T06:54:12;30.30;99.90
12602;DHT22;30282;16.436;99.370;2023-02-01T06:56:41;30.40;99.90
12602;DHT22;30282;16.436;99.370;2023-02-01T06:59:12;30.30;99.90
12602;DHT22;30282;16.436;99.370;2023-02-01T07:01:41;30.30;99.90
12602;DHT22;30282;16.436;99.370;2023-02-01T07:04:11;30.30;99.90
12602;DHT22;30282;16.436;99.370;2023-02-01T07:06:40;30.30;99.90
12602;DHT22;30282;16.436;99.370;2023-02-01T07:09:09;30.30;99.90
12602;DHT22;30282;16.436;99.370;2023-02-01T07:11:39;30.30;99.90
12602;DHT22;30282;16.436;99.370;2023-02-01T07:14:11;30.30;99.90
12602;DHT22;30282;16.436;99.370;2023-02-01T07:16:41;30.20;99.90
12602;DHT22;30282;16.436;99.370;2023-02-01T07:19:10;30.20;99.90
12602;DHT22;30282;16.436;99.370;2023-02-01T07:21:40;30.30;99.90
12602;DHT22;30282;16.436;99.370;2023-02-01T07:24:09;30.30;99.90
12602;DHT22;30282;16.436;99.370;2023-02-01T07:26:38;30.40;99.90
12602;DHT22;30282;16.436;99.370;2023-02-01T07:29:07;30.40;99.90
12602;DHT22;30282;16.436;99.370;2023-02-01T07:31:38;30.40;99.90
12602;DHT22;30282;16.436;99.370;2023-02-01T07:34:07;30.40;99.90
12602;DHT22;30282;16.436;99.370;2023-02-01T07:36:36;30.50;99.90
12602;DHT22;30282;16.436;99.370;2023-02-01T07:39:06;30.60;99.90
12602;DHT22;30282;16.436;99.370;2023-02-01T07:41:35;30.60;99.90
12602;DHT22;30282;16.436;99.370;2023-02-01T07:44:04;30.60;99.90
12602;DHT22;30282;16.436;99.370;2023-02-01T07:46:34;30.60;99.90
12602;DHT22;30282;16.436;99.370;2023-02-01T07:49:05;30.60;99.90
12602;DHT22;30282;16.436;99.370;2023-02-01T07:51:34;30.70;99.90
12602;DHT22;30282;16.436;99.370;2023-02-01T07:54:03;30.60;99.90
12602;DHT22;30282;16.436;99.370;2023-02-01T07:56:33;30.60;99.90
12602;DHT22;30282;16.436;99.370;2023-02-01T07:59:02;30.60;99.90
12602;DHT22;30282;16.436;99.370;2023-02-01T08:01:30;30.60;99.90
12602;DHT22;30282;16.436;99.370;2023-02-01T08:03:59;30.60;99.90
12602;DHT22;30282;16.436;99.370;2023-02-01T08:06:31;30.60;99.90
12602;DHT22;30282;16.436;99.370;2023-02-01T08:09:00;30.60;99.90
12602;DHT22;30282;16.436;99.370;2023-02-01T08:11:29;30.70;99.90
12602;DHT22;30282;16.436;99.370;2023-02-01T08:13:59;30.70;99.90
12602;DHT22;30282;16.436;99.370;2023-02-01T08:16:28;30.80;99.90
12602;DHT22;30282;16.436;99.370;2023-02-01T08:18:57;30.80;99.90
12602;DHT22;30282;16.436;99.370;2023-02-01T08:21:29;30.90;99.90
12602;DHT22;30282;16.436;99.370;2023-02-01T08:24:05;30.90;99.90
12602;DHT22;30282;16.436;99.370;2023-02-01T08:26:34;30.90;99.90
12602;DHT22;30282;16.436;99.370;2023-02-01T08:29:04;30.80;99.90
12602;DHT22;30282;16.436;99.370;2023-02-01T08:31:33;30.90;99.90
12602;DHT22;30282;16.436;99.370;2023-02-01T08:34:03;31.00;99.90
12602;DHT22;30282;16.436;99.370;2023-02-01T08:36:34;30.90;99.90
12602;DHT22;30282;16.436;99.370;2023-02-01T08:39:04;30.90;99.90
12602;DHT22;30282;16.436;99.370;2023-02-01T08:41:35;31.00;99.90
12602;DHT22;30282;16.436;99.370;2023-02-01T08:44:05;31.00;99.90
12602;DHT22;30282;16.436;99.370;2023-02-01T08:46:34;30.90;99.90
12602;DHT22;30282;16.436;99.370;2023-02-01T08:49:03;30.90;99.90
12602;DHT22;30282;16.436;99.370;2023-02-01T08:51:34;30.90;99.90
12602;DHT22;30282;16.436;99.370;2023-02-01T08:54:03;30.80;99.90
12602;DHT22;30282;16.436;99.370;2023-02-01T08:56:34;30.70;99.90
12602;DHT22;30282;16.436;99.370;2023-02-01T08:59:04;30.60;99.90
12602;DHT22;30282;16.436;99.370;2023-02-01T09:01:33;30.50;99.90
12602;DHT22;30282;16.436;99.370;2023-02-01T09:04:02;30.50;99.90
12602;DHT22;30282;16.436;99.370;2023-02-01T09:06:33;30.40;99.90
12602;DHT22;30282;16.436;99.370;2023-02-01T09:09:02;30.40;99.90
12602;DHT22;30282;16.436;99.370;2023-02-01T09:11:31;30.40;99.90
12602;DHT22;30282;16.436;99.370;2023-02-01T09:14:00;30.30;99.90
12602;DHT22;30282;16.436;99.370;2023-02-01T09:16:30;30.40;99.90
12602;DHT22;30282;16.436;99.370;2023-02-01T09:19:01;30.40;99.90
12602;DHT22;30282;16.436;99.370;2023-02-01T09:21:30;30.40;99.90
12602;DHT22;30282;16.436;99.370;2023-02-01T09:24:01;30.40;99.90
12602;DHT22;30282;16.436;99.370;2023-02-01T09:26:31;30.40;99.90
12602;DHT22;30282;16.436;99.370;2023-02-01T09:29:00;30.40;99.90
12602;DHT22;30282;16.436;99.370;2023-02-01T09:31:30;30.40;99.90
12602;DHT22;30282;16.436;99.370;2023-02-01T09:33:59;30.30;99.90
12602;DHT22;30282;16.436;99.370;2023-02-01T09:36:28;30.40;99.90
12602;DHT22;30282;16.436;99.370;2023-02-01T09:38:57;30.40;99.90
12602;DHT22;30282;16.436;99.370;2023-02-01T09:41:36;30.50;99.90
12602;DHT22;30282;16.436;99.370;2023-02-01T09:44:18;30.50;99.90
12602;DHT22;30282;16.436;99.370;2023-02-01T09:46:54;30.50;99.90
12602;DHT22;30282;16.436;99.370;2023-02-01T09:49:28;30.50;99.90
12602;DHT22;30282;16.436;99.370;2023-02-01T09:52:00;30.50;99.90
12602;DHT22;30282;16.436;99.370;2023-02-01T09:54:40;30.50;99.90
12602;DHT22;30282;16.436;99.370;2023-02-01T09:57:16;30.50;99.90
12602;DHT22;30282;16.436;99.370;2023-02-01T09:59:52;30.50;99.90
12602;DHT22;30282;16.436;99.370;2023-02-01T10:02:25;30.40;99.90
12602;DHT22;30282;16.436;99.370;2023-02-01T10:04:57;30.50;99.90
12602;DHT22;30282;16.436;99.370;2023-02-01T10:07:35;30.40;99.90
12602;DHT22;30282;16.436;99.370;2023-02-01T10:10:13;30.40;99.90
12602;DHT22;30282;16.436;99.370;2023-02-01T10:13:09;30.30;99.90
12602;DHT22;30282;16.436;99.370;2023-02-01T10:15:56;30.30;99.90
12602;DHT22;30282;16.436;99.370;2023-02-01T10:18:36;30.20;99.90
12602;DHT22;30282;16.436;99.370;2023-02-01T10:21:14;30.20;99.90
12602;DHT22;30282;16.436;99.370;2023-02-01T10:24:07;30.10;99.90
12602;DHT22;30282;16.436;99.370;2023-02-01T10:26:42;30.10;99.90
12602;DHT22;30282;16.436;99.370;2023-02-01T10:29:16;30.00;99.90
12602;DHT22;30282;16.436;99.370;2023-02-01T10:31:47;29.90;99.90
12602;DHT22;30282;16.436;99.370;2023-02-01T10:34:21;29.70;99.90
12602;DHT22;30282;16.436;99.370;2023-02-01T10:36:59;29.70;99.90
12602;DHT22;30282;16.436;99.370;2023-02-01T10:39:29;29.60;99.90
12602;DHT22;30282;16.436;99.370;2023-02-01T10:41:58;29.60;99.90
12602;DHT22;30282;16.436;99.370;2023-02-01T10:44:29;29.50;99.90
12602;DHT22;30282;16.436;99.370;2023-02-01T10:46:59;29.40;99.90
12602;DHT22;30282;16.436;99.370;2023-02-01T10:49:33;29.30;99.90
12602;DHT22;30282;16.436;99.370;2023-02-01T10:52:12;29.20;99.90
12602;DHT22;30282;16.436;99.370;2023-02-01T10:54:43;29.10;99.90
12602;DHT22;30282;16.436;99.370;2023-02-01T10:57:22;29.00;99.90
12602;DHT22;30282;16.436;99.370;2023-02-01T10:59:54;28.90;99.90
12602;DHT22;30282;16.436;99.370;2023-02-01T11:02:29;28.90;99.90
12602;DHT22;30282;16.436;99.370;2023-02-01T11:05:01;28.80;99.90
12602;DHT22;30282;16.436;99.370;2023-02-01T11:07:30;28.70;99.90
12602;DHT22;30282;16.436;99.370;2023-02-01T11:09:59;28.60;99.90
12602;DHT22;30282;16.436;99.370;2023-02-01T11:12:30;28.60;99.90
12602;DHT22;30282;16.436;99.370;2023-02-01T11:15:15;28.50;99.90
12602;DHT22;30282;16.436;99.370;2023-02-01T11:17:48;28.30;99.90
12602;DHT22;30282;16.436;99.370;2023-02-01T11:20:20;28.20;99.90
12602;DHT22;30282;16.436;99.370;2023-02-01T11:22:54;28.20;99.90
12602;DHT22;30282;16.436;99.370;2023-02-01T11:25:23;28.20;99.90
12602;DHT22;30282;16.436;99.370;2023-02-01T11:27:56;28.10;99.90
12602;DHT22;30282;16.436;99.370;2023-02-01T11:30:33;28.00;99.90
12602;DHT22;30282;16.436;99.370;2023-02-01T11:33:04;27.80;99.90
12602;DHT22;30282;16.436;99.370;2023-02-01T11:35:37;27.70;99.90
12602;DHT22;30282;16.436;99.370;2023-02-01T11:38:20;27.70;99.90
12602;DHT22;30282;16.436;99.370;2023-02-01T11:40:50;27.60;99.90
12602;DHT22;30282;16.436;99.370;2023-02-01T11:43:24;27.50;99.90
12602;DHT22;30282;16.436;99.370;2023-02-01T11:46:00;27.40;99.90
12602;DHT22;30282;16.436;99.370;2023-02-01T11:48:30;27.40;99.90
12602;DHT22;30282;16.436;99.370;2023-02-01T11:51:19;27.20;99.90
12602;DHT22;30282;16.436;99.370;2023-02-01T11:54:08;27.10;99.90
12602;DHT22;30282;16.436;99.370;2023-02-01T11:56:48;27.00;99.90
12602;DHT22;30282;16.436;99.370;2023-02-01T11:59:33;26.90;99.90
12602;DHT22;30282;16.436;99.370;2023-02-01T12:02:30;26.80;99.90
12602;DHT22;30282;16.436;99.370;2023-02-01T12:05:22;26.70;99.90
12602;DHT22;30282;16.436;99.370;2023-02-01T12:08:15;26.60;99.90
12602;DHT22;30282;16.436;99.370;2023-02-01T12:11:01;26.60;99.90
12602;DHT22;30282;16.436;99.370;2023-02-01T12:13:45;26.40;99.90
12602;DHT22;30282;16.436;99.370;2023-02-01T12:16:27;26.40;99.90
12602;DHT22;30282;16.436;99.370;2023-02-01T12:19:23;26.40;99.90
12602;DHT22;30282;16.436;99.370;2023-02-01T12:22:05;26.40;99.90
12602;DHT22;30282;16.436;99.370;2023-02-01T12:28:04;26.50;99.90
12602;DHT22;30282;16.436;99.370;2023-02-01T12:31:00;26.50;99.90
12602;DHT22;30282;16.436;99.370;2023-02-01T12:33:42;26.40;99.90
12602;DHT22;30282;16.436;99.370;2023-02-01T12:36:23;26.10;99.90
12602;DHT22;30282;16.436;99.370;2023-02-01T12:38:56;26.00;99.90
12602;DHT22;30282;16.436;99.370;2023-02-01T12:41:41;25.80;99.90
12602;DHT22;30282;16.436;99.370;2023-02-01T12:44:30;25.70;99.90
12602;DHT22;30282;16.436;99.370;2023-02-01T12:47:09;25.70;99.90
12602;DHT22;30282;16.436;99.370;2023-02-01T12:49:51;25.70;99.90
12602;DHT22;30282;16.436;99.370;2023-02-01T12:52:29;25.70;99.90
12602;DHT22;30282;16.436;99.370;2023-02-01T12:55:07;25.70;99.90
12602;DHT22;30282;16.436;99.370;2023-02-01T12:57:41;25.70;99.90
12602;DHT22;30282;16.436;99.370;2023-02-01T13:00:20;25.70;99.90
12602;DHT22;30282;16.436;99.370;2023-02-01T13:02:55;25.60;99.90
12602;DHT22;30282;16.436;99.370;2023-02-01T13:05:31;25.50;99.90
12602;DHT22;30282;16.436;99.370;2023-02-01T13:08:06;25.50;99.90
12602;DHT22;30282;16.436;99.370;2023-02-01T13:10:40;25.40;99.90
12602;DHT22;30282;16.436;99.370;2023-02-01T13:13:15;25.30;99.90
12602;DHT22;30282;16.436;99.370;2023-02-01T13:15:53;25.10;99.90
12602;DHT22;30282;16.436;99.370;2023-02-01T13:18:31;24.90;99.90
12602;DHT22;30282;16.436;99.370;2023-02-01T13:21:05;24.90;99.90
12602;DHT22;30282;16.436;99.370;2023-02-01T13:23:38;24.90;99.90
12602;DHT22;30282;16.436;99.370;2023-02-01T13:26:08;24.90;99.90
12602;DHT22;30282;16.436;99.370;2023-02-01T13:28:42;24.60;99.90
12602;DHT22;30282;16.436;99.370;2023-02-01T13:37:36;24.50;99.90
12602;DHT22;30282;16.436;99.370;2023-02-01T13:40:21;24.60;99.90
12602;DHT22;30282;16.436;99.370;2023-02-01T13:42:56;24.50;99.90
12602;DHT22;30282;16.436;99.370;2023-02-01T13:45:29;24.50;99.90
12602;DHT22;30282;16.436;99.370;2023-02-01T13:48:02;24.40;99.90
12602;DHT22;30282;16.436;99.370;2023-02-01T13:50:34;24.40;99.90
12602;DHT22;30282;16.436;99.370;2023-02-01T13:53:11;24.40;99.90
12602;DHT22;30282;16.436;99.370;2023-02-01T13:55:46;24.40;99.90
12602;DHT22;30282;16.436;99.370;2023-02-01T13:58:20;24.40;99.90
12602;DHT22;30282;16.436;99.370;2023-02-01T14:00:50;24.40;99.90
12602;DHT22;30282;16.436;99.370;2023-02-01T14:03:21;24.20;99.90
12602;DHT22;30282;16.436;99.370;2023-02-01T14:09:31;24.00;99.90
12602;DHT22;30282;16.436;99.370;2023-02-01T14:15:29;24.10;99.90
12602;DHT22;30282;16.436;99.370;2023-02-01T14:17:59;24.10;99.90
12602;DHT22;30282;16.436;99.370;2023-02-01T14:20:46;24.00;99.90
12602;DHT22;30282;16.436;99.370;2023-02-01T14:23:28;23.90;99.90
12602;DHT22;30282;16.436;99.370;2023-02-01T14:26:09;23.80;99.90
12602;DHT22;30282;16.436;99.370;2023-02-01T14:28:49;23.60;99.90
12602;DHT22;30282;16.436;99.370;2023-02-01T14:31:46;23.40;99.90
12602;DHT22;30282;16.436;99.370;2023-02-01T14:34:24;23.30;99.90
12602;DHT22;30282;16.436;99.370;2023-02-01T14:36:58;23.20;99.90
12602;DHT22;30282;16.436;99.370;2023-02-01T14:39:48;23.10;99.90
12602;DHT22;30282;16.436;99.370;2023-02-01T14:42:23;23.10;99.90
12602;DHT22;30282;16.436;99.370;2023-02-01T14:44:54;23.10;99.90
12602;DHT22;30282;16.436;99.370;2023-02-01T14:47:31;23.00;99.90
12602;DHT22;30282;16.436;99.370;2023-02-01T14:50:22;23.00;99.90
12602;DHT22;30282;16.436;99.370;2023-02-01T14:53:06;23.10;99.90
12602;DHT22;30282;16.436;99.370;2023-02-01T14:55:41;23.10;99.90
12602;DHT22;30282;16.436;99.370;2023-02-01T14:58:16;23.30;99.90
12602;DHT22;30282;16.436;99.370;2023-02-01T15:00:53;23.30;99.90
12602;DHT22;30282;16.436;99.370;2023-02-01T15:03:45;23.10;99.90
12602;DHT22;30282;16.436;99.370;2023-02-01T15:06:24;22.90;99.90
12602;DHT22;30282;16.436;99.370;2023-02-01T15:08:56;23.00;99.90
12602;DHT22;30282;16.436;99.370;2023-02-01T15:11:26;23.00;99.90
12602;DHT22;30282;16.436;99.370;2023-02-01T15:13:58;22.90;99.90
12602;DHT22;30282;16.436;99.370;2023-02-01T15:16:27;22.90;99.90
12602;DHT22;30282;16.436;99.370;2023-02-01T15:19:13;22.70;99.90
12602;DHT22;30282;16.436;99.370;2023-02-01T15:21:47;22.50;99.90
12602;DHT22;30282;16.436;99.370;2023-02-01T15:24:22;22.60;99.90
12602;DHT22;30282;16.436;99.370;2023-02-01T15:26:52;22.70;99.90
12602;DHT22;30282;16.436;99.370;2023-02-01T15:29:23;22.60;99.90
12602;DHT22;30282;16.436;99.370;2023-02-01T15:31:57;22.50;99.90
12602;DHT22;30282;16.436;99.370;2023-02-01T15:34:45;22.40;99.90
12602;DHT22;30282;16.436;99.370;2023-02-01T15:37:16;22.40;99.90
12602;DHT22;30282;16.436;99.370;2023-02-01T15:40:19;22.40;99.90
12602;DHT22;30282;16.436;99.370;2023-02-01T15:42:54;22.50;99.90
12602;DHT22;30282;16.436;99.370;2023-02-01T15:45:28;22.50;99.90
12602;DHT22;30282;16.436;99.370;2023-02-01T15:47:59;22.60;99.90
12602;DHT22;30282;16.436;99.370;2023-02-01T15:50:31;22.60;99.90
12602;DHT22;30282;16.436;99.370;2023-02-01T15:53:01;22.70;99.90
12602;DHT22;30282;16.436;99.370;2023-02-01T15:55:36;22.70;99.90
12602;DHT22;30282;16.436;99.370;2023-02-01T15:58:07;22.80;99.90
12602;DHT22;30282;16.436;99.370;2023-02-01T16:00:43;22.60;99.90
12602;DHT22;30282;16.436;99.370;2023-02-01T16:03:33;22.40;99.90
12602;DHT22;30282;16.436;99.370;2023-02-01T16:06:06;22.30;99.90
12602;DHT22;30282;16.436;99.370;2023-02-01T16:08:48;22.30;99.90
12602;DHT22;30282;16.436;99.370;2023-02-01T16:11:27;22.30;99.90
12602;DHT22;30282;16.436;99.370;2023-02-01T16:13:57;22.10;99.90
12602;DHT22;30282;16.436;99.370;2023-02-01T16:16:28;22.10;99.90
12602;DHT22;30282;16.436;99.370;2023-02-01T16:18:57;22.10;99.90
12602;DHT22;30282;16.436;99.370;2023-02-01T16:21:28;22.10;99.90